Time;durP1;ratioP1;P1;durP2;ratioP2;P2;SDS_P1;SDS_P2;PMS_P1;PMS_P2;Temp;Humidity;BMP_temperature;BMP_pressure;BME280_temperature;BME280_humidity;BME280_pressure;Samples;Min_cycle;Max_cycle;Signal;HPM_P1;HPM_P2
2023/12/15 00:00:19;;;;;;;1999.90;999.90;;;4.70;99.90;;;;;;5136108;27;20066;-77
2023/12/15 00:02:48;;;;;;;1999.90;999.90;;;4.70;99.90;;;;;;5137549;27;20114;-76
2023/12/15 00:05:13;;;;;;;1999.90;999.90;;;4.80;99.90;;;;;;5135973;27;20031;-76
2023/12/15 00:07:39;;;;;;;1999.90;999.90;;;4.80;99.90;;;;;;5137341;27;20385;-77
2023/12/15 00:10:05;;;;;;;1999.90;999.90;;;4.80;99.90;;;;;;5137640;27;20035;-76
2023/12/15 00:12:31;;;;;;;1999.90;999.90;;;4.90;99.90;;;;;;5135909;27;20491;-78
2023/12/15 00:14:57;;;;;;;1999.90;999.90;;;4.90;99.90;;;;;;5137615;27;20039;-77
2023/12/15 00:17:22;;;;;;;1999.90;999.90;;;4.90;99.90;;;;;;5135738;27;20496;-77
2023/12/15 00:19:48;;;;;;;1999.90;999.90;;;4.90;99.90;;;;;;5137489;27;20024;-77
2023/12/15 00:22:13;;;;;;;1999.90;999.90;;;4.90;99.90;;;;;;5137450;27;20480;-77
2023/12/15 00:24:39;;;;;;;1999.90;999.90;;;4.90;99.90;;;;;;5137148;27;20477;-77
2023/12/15 00:27:05;;;;;;;1999.90;999.90;;;4.90;99.90;;;;;;5137059;27;20465;-77
2023/12/15 00:29:30;;;;;;;1999.90;999.90;;;4.90;99.90;;;;;;5136994;27;20118;-76
2023/12/15 00:31:56;;;;;;;1999.90;999.90;;;4.90;99.90;;;;;;5137122;27;20035;-77
2023/12/15 00:34:21;;;;;;;1999.90;999.90;;;4.90;99.90;;;;;;5136832;27;20063;-76
2023/12/15 00:36:47;;;;;;;1999.90;999.90;;;4.90;99.90;;;;;;5136835;27;20118;-77
2023/12/15 00:39:12;;;;;;;1999.90;999.90;;;4.90;99.90;;;;;;5136889;27;20023;-77
2023/12/15 00:41:38;;;;;;;1999.90;999.90;;;4.90;99.90;;;;;;5137150;27;20389;-77
2023/12/15 00:44:03;;;;;;;1999.90;999.90;;;4.90;99.90;;;;;;5136893;27;20409;-77
2023/12/15 00:46:29;;;;;;;1999.90;999.90;;;4.90;99.90;;;;;;5135246;27;20089;-76
2023/12/15 00:48:55;;;;;;;1999.90;999.90;;;5.00;99.90;;;;;;5137106;27;20031;-77
2023/12/15 00:51:21;;;;;;;1999.90;999.90;;;5.00;99.90;;;;;;5135323;27;20123;-77
2023/12/15 00:53:46;;;;;;;1999.90;999.90;;;5.00;99.90;;;;;;5136696;27;20059;-76
2023/12/15 00:56:12;;;;;;;1999.90;999.90;;;5.00;99.90;;;;;;5136629;27;20431;-77
2023/12/15 00:58:37;;;;;;;1999.90;999.90;;;5.00;99.90;;;;;;5134536;27;20032;-77
2023/12/15 01:01:03;;;;;;;1999.90;999.90;;;5.00;99.90;;;;;;5136464;27;20028;-76
2023/12/15 01:03:30;;;;;;;1999.90;999.90;;;5.00;99.90;;;;;;5136785;27;20093;-76
2023/12/15 01:05:56;;;;;;;1999.90;999.90;;;4.90;99.90;;;;;;5136430;27;20027;-77
2023/12/15 01:08:22;;;;;;;1999.90;999.90;;;5.00;99.90;;;;;;5136417;27;20423;-76
2023/12/15 01:10:47;;;;;;;1999.90;999.90;;;5.00;99.90;;;;;;5136358;27;20028;-76
2023/12/15 01:13:13;;;;;;;1999.90;999.90;;;5.00;99.90;;;;;;5136102;27;20089;-77
2023/12/15 01:15:39;;;;;;;1999.90;999.90;;;5.00;99.90;;;;;;5135801;27;20405;-78
2023/12/15 01:18:05;;;;;;;1999.90;999.90;;;5.00;99.90;;;;;;5136447;27;20126;-77
2023/12/15 01:20:30;;;;;;;1999.90;999.90;;;5.00;99.90;;;;;;5136501;27;20034;-76
2023/12/15 01:22:56;;;;;;;1999.90;999.90;;;5.00;99.90;;;;;;5136364;27;20119;-77
2023/12/15 01:25:21;;;;;;;1999.90;999.90;;;5.00;99.90;;;;;;5134622;27;20063;-77
2023/12/15 01:27:47;;;;;;;1999.90;999.90;;;5.00;99.90;;;;;;5136118;27;20032;-76
2023/12/15 01:30:12;;;;;;;1999.90;999.90;;;5.10;99.90;;;;;;5136250;27;20028;-77
2023/12/15 01:32:38;;;;;;;1999.90;999.90;;;5.00;99.90;;;;;;5136281;27;20088;-78
2023/12/15 01:35:05;;;;;;;1999.90;999.90;;;5.00;99.90;;;;;;5136113;27;20048;-77
2023/12/15 01:37:30;;;;;;;1999.90;999.90;;;5.00;99.90;;;;;;5134270;27;20081;-77
2023/12/15 01:39:55;;;;;;;1999.90;999.90;;;5.00;99.90;;;;;;5134670;27;20426;-77
2023/12/15 01:42:21;;;;;;;1999.90;999.90;;;5.00;99.90;;;;;;5136178;27;20115;-77
2023/12/15 01:44:47;;;;;;;1999.90;999.90;;;5.00;99.90;;;;;;5136040;27;20035;-77
2023/12/15 01:47:14;;;;;;;1999.90;999.90;;;5.00;99.90;;;;;;5135917;27;20036;-77
2023/12/15 01:49:40;;;;;;;1999.90;999.90;;;5.00;99.90;;;;;;5136062;27;20108;-77
2023/12/15 01:52:06;;;;;;;1999.90;999.90;;;5.00;99.90;;;;;;5136016;27;20518;-77
2023/12/15 01:54:32;;;;;;;1999.90;999.90;;;5.00;99.90;;;;;;5135953;27;20036;-77
2023/12/15 01:56:58;;;;;;;1999.90;999.90;;;5.00;99.90;;;;;;5135762;27;20043;-77
2023/12/15 01:59:23;;;;;;;1999.90;999.90;;;5.00;99.90;;;;;;5135744;27;20140;-77
2023/12/15 02:01:49;;;;;;;1999.90;999.90;;;5.00;99.90;;;;;;5135667;27;20032;-77
2023/12/15 02:04:14;;;;;;;1999.90;999.90;;;5.00;99.90;;;;;;5135672;27;20034;-77
2023/12/15 02:06:40;;;;;;;1999.90;999.90;;;5.00;99.90;;;;;;5135596;27;20031;-77
2023/12/15 02:09:06;;;;;;;1999.90;999.90;;;5.00;99.90;;;;;;5135855;27;20027;-77
2023/12/15 02:11:32;;;;;;;1999.90;999.90;;;5.00;99.90;;;;;;5138196;27;20512;-76
2023/12/15 02:13:57;;;;;;;1999.90;999.90;;;5.00;99.90;;;;;;5136763;27;20066;-77
2023/12/15 02:16:23;;;;;;;1999.90;999.90;;;5.00;99.90;;;;;;5137564;27;20076;-77
2023/12/15 02:18:48;;;;;;;1999.90;999.90;;;5.00;99.90;;;;;;5139570;27;20050;-77
2023/12/15 02:21:14;;;;;;;1999.90;999.90;;;5.00;99.90;;;;;;5139224;27;20063;-78
2023/12/15 02:23:39;;;;;;;1999.90;999.90;;;5.00;99.90;;;;;;5137492;27;20031;-77
2023/12/15 02:26:05;;;;;;;1999.90;999.90;;;5.00;99.90;;;;;;5138894;27;20038;-77
2023/12/15 02:28:31;;;;;;;1999.90;999.90;;;5.00;99.90;;;;;;5137709;27;20481;-77
2023/12/15 02:30:56;;;;;;;1999.90;999.90;;;5.00;99.90;;;;;;5139192;27;20039;-77
2023/12/15 02:33:22;;;;;;;1999.90;999.90;;;5.00;99.90;;;;;;5139128;27;20084;-77
2023/12/15 02:35:50;;;;;;;1999.90;999.90;;;5.00;99.90;;;;;;5138676;27;20062;-77
2023/12/15 02:38:18;;;;;;;1999.90;999.90;;;5.00;99.90;;;;;;5138946;27;20082;-77
2023/12/15 02:40:44;;;;;;;1999.90;999.90;;;5.00;99.90;;;;;;5137802;27;20067;-77
2023/12/15 02:43:10;;;;;;;1999.90;999.90;;;5.00;99.90;;;;;;5139010;27;20509;-77
2023/12/15 02:45:37;;;;;;;1999.90;999.90;;;5.00;99.90;;;;;;5138877;27;20493;-79
2023/12/15 02:48:03;;;;;;;1999.90;999.90;;;5.00;99.90;;;;;;5138648;27;20027;-78
2023/12/15 02:50:28;;;;;;;1999.90;999.90;;;5.00;99.90;;;;;;5137725;27;20040;-78
2023/12/15 02:52:54;;;;;;;1999.90;999.90;;;5.00;99.90;;;;;;5138869;27;20039;-77
2023/12/15 02:55:19;;;;;;;1999.90;999.90;;;5.00;99.90;;;;;;5138367;27;20530;-77
2023/12/15 02:57:45;;;;;;;1999.90;999.90;;;5.00;99.90;;;;;;5138455;27;20181;-77
2023/12/15 03:00:11;;;;;;;1999.90;999.90;;;5.00;99.90;;;;;;5138716;27;20386;-77
2023/12/15 03:02:39;;;;;;;1999.90;999.90;;;5.00;99.90;;;;;;5138299;27;20036;-77
2023/12/15 03:05:05;;;;;;;1999.90;999.90;;;5.10;99.90;;;;;;5138113;27;20027;-77
2023/12/15 03:07:31;;;;;;;1999.90;999.90;;;5.00;99.90;;;;;;5138469;27;20382;-77
2023/12/15 03:09:56;;;;;;;1999.90;999.90;;;5.10;99.90;;;;;;5136956;27;20404;-77
2023/12/15 03:12:22;;;;;;;1999.90;999.90;;;5.00;99.90;;;;;;5138622;27;20035;-77
2023/12/15 03:14:48;;;;;;;1999.90;999.90;;;5.10;99.90;;;;;;5137661;27;20032;-77
2023/12/15 03:17:16;;;;;;;1999.90;999.90;;;5.00;99.90;;;;;;5138082;27;20043;-76
2023/12/15 03:19:42;;;;;;;1999.90;999.90;;;5.00;99.90;;;;;;5138497;27;20042;-77
2023/12/15 03:22:07;;;;;;;1999.90;999.90;;;5.00;99.90;;;;;;5136440;27;20077;-78
2023/12/15 03:24:33;;;;;;;1999.90;999.90;;;5.00;99.90;;;;;;5136933;27;20036;-78
2023/12/15 03:26:58;;;;;;;1999.90;999.90;;;5.00;99.90;;;;;;5137788;27;20032;-77
2023/12/15 03:29:24;;;;;;;1999.90;999.90;;;5.00;99.90;;;;;;5136735;27;20134;-78
2023/12/15 03:31:50;;;;;;;1999.90;999.90;;;5.00;99.90;;;;;;5136717;27;20458;-78
2023/12/15 03:34:15;;;;;;;1999.90;999.90;;;5.10;99.90;;;;;;5137883;27;20039;-78
2023/12/15 03:36:41;;;;;;;1999.90;999.90;;;5.10;99.90;;;;;;5137894;27;20039;-78
2023/12/15 03:39:07;;;;;;;1999.90;999.90;;;5.10;99.90;;;;;;5138194;27;20038;-78
2023/12/15 03:41:33;;;;;;;1999.90;999.90;;;5.10;99.90;;;;;;5136736;27;20035;-78
2023/12/15 03:43:58;;;;;;;1999.90;999.90;;;5.10;99.90;;;;;;5136396;27;20036;-78
2023/12/15 03:46:24;;;;;;;1999.90;999.90;;;5.10;99.90;;;;;;5138021;27;20127;-78
2023/12/15 03:48:50;;;;;;;1999.90;999.90;;;5.10;99.90;;;;;;5137596;27;20094;-77
2023/12/15 03:51:15;;;;;;;1999.90;999.90;;;5.10;99.90;;;;;;5136362;27;20475;-79
2023/12/15 03:53:41;;;;;;;1999.90;999.90;;;5.10;99.90;;;;;;5137530;27;20062;-78
2023/12/15 03:56:07;;;;;;;1999.90;999.90;;;5.10;99.90;;;;;;5137624;27;20031;-78
2023/12/15 03:58:33;;;;;;;1999.90;999.90;;;5.10;99.90;;;;;;5137590;27;20156;-77
2023/12/15 04:00:58;;;;;;;1999.90;999.90;;;5.10;99.90;;;;;;5136286;27;20450;-78
2023/12/15 04:03:24;;;;;;;1999.90;999.90;;;5.20;99.90;;;;;;5137796;27;20494;-78
2023/12/15 04:05:50;;;;;;;1999.90;999.90;;;5.20;99.90;;;;;;5135610;27;20777;-77
2023/12/15 04:08:15;;;;;;;1999.90;999.90;;;5.10;99.90;;;;;;5137468;27;20504;-78
2023/12/15 04:10:41;;;;;;;1999.90;999.90;;;5.10;99.90;;;;;;5137567;27;20085;-78
2023/12/15 04:13:06;;;;;;;1999.90;999.90;;;5.10;99.90;;;;;;5136697;27;20511;-78
2023/12/15 04:15:32;;;;;;;1999.90;999.90;;;5.20;99.90;;;;;;5137229;27;20477;-77
2023/12/15 04:18:03;;;;;;;1999.90;999.90;;;5.20;99.90;;;;;;5135679;27;20093;-77
2023/12/15 04:20:28;;;;;;;1999.90;999.90;;;5.20;99.90;;;;;;5137591;27;20047;-78
2023/12/15 04:22:54;;;;;;;1999.90;999.90;;;5.10;99.90;;;;;;5137363;27;20106;-78
2023/12/15 04:25:19;;;;;;;1999.90;999.90;;;5.10;99.90;;;;;;5137257;27;20039;-77
2023/12/15 04:27:45;;;;;;;1999.90;999.90;;;5.10;99.90;;;;;;5137184;27;20088;-77
2023/12/15 04:30:11;;;;;;;1999.90;999.90;;;5.10;99.90;;;;;;5135698;27;20024;-78
2023/12/15 04:32:37;;;;;;;1999.90;999.90;;;5.10;99.90;;;;;;5136401;27;20084;-78
2023/12/15 04:35:03;;;;;;;1999.90;999.90;;;5.10;99.90;;;;;;5135305;27;20037;-77
2023/12/15 04:37:28;;;;;;;1999.90;999.90;;;5.10;99.90;;;;;;5137017;27;20471;-78
2023/12/15 04:39:54;;;;;;;1999.90;999.90;;;5.10;99.90;;;;;;5136804;27;20034;-78
2023/12/15 04:42:19;;;;;;;1999.90;999.90;;;5.10;99.90;;;;;;5135551;27;20110;-78
2023/12/15 04:44:45;;;;;;;1999.90;999.90;;;5.10;99.90;;;;;;5136500;27;20056;-77
2023/12/15 04:47:10;;;;;;;1999.90;999.90;;;5.10;99.90;;;;;;5136802;27;20145;-78
2023/12/15 04:49:37;;;;;;;1999.90;999.90;;;5.10;99.90;;;;;;5135412;27;20027;-78
2023/12/15 04:52:03;;;;;;;1999.90;999.90;;;5.10;99.90;;;;;;5136941;27;20042;-78
2023/12/15 04:54:29;;;;;;;1999.90;999.90;;;5.10;99.90;;;;;;5135301;27;20049;-77
2023/12/15 04:56:54;;;;;;;1999.90;999.90;;;5.10;99.90;;;;;;5134884;27;20035;-77
2023/12/15 04:59:20;;;;;;;1999.90;999.90;;;5.20;99.90;;;;;;5136846;27;20398;-78
2023/12/15 05:01:45;;;;;;;1999.90;999.90;;;5.20;99.90;;;;;;5136728;27;20039;-78
2023/12/15 05:04:11;;;;;;;1999.90;999.90;;;5.20;99.90;;;;;;5136587;27;20043;-78
2023/12/15 05:06:37;;;;;;;1999.90;999.90;;;5.20;99.90;;;;;;5136541;27;20036;-78
2023/12/15 05:09:08;;;;;;;1999.90;999.90;;;5.20;99.90;;;;;;5136658;27;20051;-78
2023/12/15 05:11:35;;;;;;;1999.90;999.90;;;5.20;99.90;;;;;;5135261;27;20036;-79
2023/12/15 05:14:01;;;;;;;1999.90;999.90;;;5.10;99.90;;;;;;5134659;27;20062;-78
2023/12/15 05:16:27;;;;;;;1999.90;999.90;;;5.10;99.90;;;;;;5136366;27;20047;-78
2023/12/15 05:18:52;;;;;;;1999.90;999.90;;;5.10;99.90;;;;;;5136427;27;20030;-77
2023/12/15 05:21:18;;;;;;;1999.90;999.90;;;5.10;99.90;;;;;;5136871;27;20027;-80
2023/12/15 05:23:44;;;;;;;1999.90;999.90;;;5.10;99.90;;;;;;5141201;27;20112;-80
2023/12/15 05:26:11;;;;;;;1999.90;999.90;;;5.20;99.90;;;;;;5139131;27;20187;-80
2023/12/15 05:28:37;;;;;;;1999.90;999.90;;;5.10;99.90;;;;;;5138693;27;20024;-80
2023/12/15 05:31:03;;;;;;;1999.90;999.90;;;5.10;99.90;;;;;;5140825;27;20051;-80
2023/12/15 05:33:29;;;;;;;1999.90;999.90;;;5.10;99.90;;;;;;5141109;27;20028;-80
2023/12/15 05:35:54;;;;;;;1999.90;999.90;;;5.10;99.90;;;;;;5139889;27;20031;-80
2023/12/15 05:38:20;;;;;;;1999.90;999.90;;;5.10;99.90;;;;;;5145343;27;20130;-80
2023/12/15 05:40:45;;;;;;;1999.90;999.90;;;5.10;99.90;;;;;;5148585;27;20044;-80
2023/12/15 05:43:11;;;;;;;1999.90;999.90;;;5.10;99.90;;;;;;5141593;27;20035;-80
2023/12/15 05:45:36;;;;;;;1999.90;999.90;;;5.10;99.90;;;;;;5140180;27;20089;-80
2023/12/15 05:48:02;;;;;;;1999.90;999.90;;;5.10;99.90;;;;;;5140963;27;20036;-80
2023/12/15 05:50:28;;;;;;;1999.90;999.90;;;5.10;99.90;;;;;;5141248;27;20374;-80
2023/12/15 05:52:53;;;;;;;1999.90;999.90;;;5.10;99.90;;;;;;5140326;27;20042;-79
2023/12/15 05:55:19;;;;;;;1999.90;999.90;;;5.10;99.90;;;;;;5141456;27;20035;-80
2023/12/15 05:57:45;;;;;;;1999.90;999.90;;;5.10;99.90;;;;;;5139707;27;20043;-80
2023/12/15 06:00:11;;;;;;;1999.90;999.90;;;5.00;99.90;;;;;;5140424;27;20393;-80
2023/12/15 06:02:36;;;;;;;1999.90;999.90;;;4.90;99.90;;;;;;5141665;27;20115;-80
2023/12/15 06:05:02;;;;;;;1999.90;999.90;;;4.70;99.90;;;;;;5138177;27;20147;-80
2023/12/15 06:07:28;;;;;;;1999.90;999.90;;;4.60;99.90;;;;;;5140926;27;20031;-80
2023/12/15 06:09:53;;;;;;;1999.90;999.90;;;4.50;99.90;;;;;;5143014;27;20031;-80
2023/12/15 06:12:19;;;;;;;1999.90;999.90;;;4.50;99.90;;;;;;5142624;27;20046;-80
2023/12/15 06:14:44;;;;;;;1999.90;999.90;;;4.40;99.90;;;;;;5106342;27;20039;-79
2023/12/15 06:17:10;;;;;;;1999.90;999.90;;;4.30;99.90;;;;;;5098692;28;20040;-79
2023/12/15 06:19:42;;;;;;;1999.90;999.90;;;4.20;99.90;;;;;;5100818;28;20098;-79
2023/12/15 06:22:07;;;;;;;1999.90;999.90;;;4.20;99.90;;;;;;5106572;28;20036;-79
2023/12/15 06:24:33;;;;;;;1999.90;999.90;;;4.00;99.90;;;;;;5120617;28;20082;-79
2023/12/15 06:26:58;;;;;;;1999.90;999.90;;;4.00;99.90;;;;;;5116906;28;20086;-79
2023/12/15 06:29:24;;;;;;;1999.90;999.90;;;4.10;99.90;;;;;;5102749;28;20043;-79
2023/12/15 06:31:49;;;;;;;1999.90;999.90;;;4.10;99.90;;;;;;5119497;28;20082;-79
2023/12/15 06:34:15;;;;;;;1999.90;999.90;;;4.10;99.90;;;;;;5120124;28;20040;-79
2023/12/15 06:36:41;;;;;;;1999.90;999.90;;;4.10;99.90;;;;;;5119184;28;20028;-79
2023/12/15 06:39:07;;;;;;;1999.90;999.90;;;4.20;99.90;;;;;;5118575;28;20028;-79
2023/12/15 06:41:33;;;;;;;1999.90;999.90;;;4.20;99.90;;;;;;5117170;28;20508;-79
2023/12/15 06:43:59;;;;;;;1999.90;999.90;;;4.30;99.90;;;;;;5114004;27;20035;-79
2023/12/15 06:46:25;;;;;;;1999.90;999.90;;;4.40;99.90;;;;;;5117787;28;20497;-79
2023/12/15 06:48:53;;;;;;;1999.90;999.90;;;4.50;99.90;;;;;;5113142;28;20062;-79
2023/12/15 06:51:19;;;;;;;1999.90;999.90;;;4.50;99.90;;;;;;5096519;28;20935;-79
2023/12/15 06:53:44;;;;;;;1999.90;999.90;;;4.60;99.90;;;;;;5103628;28;20044;-79
2023/12/15 06:56:10;;;;;;;1999.90;999.90;;;4.70;99.90;;;;;;5117912;27;20040;-79
2023/12/15 06:58:35;;;;;;;1999.90;999.90;;;4.70;99.90;;;;;;5120326;28;20064;-79
2023/12/15 07:01:01;;;;;;;1999.90;999.90;;;4.80;99.90;;;;;;5122419;28;20028;-78
2023/12/15 07:03:28;;;;;;;1999.90;999.90;;;4.80;99.90;;;;;;5122791;28;20804;-79
2023/12/15 07:05:54;;;;;;;1999.90;999.90;;;4.90;99.90;;;;;;5121537;27;20027;-79
2023/12/15 07:08:19;;;;;;;1999.90;999.90;;;4.90;99.90;;;;;;5119941;28;20108;-79
2023/12/15 07:10:45;;;;;;;1999.90;999.90;;;4.90;99.90;;;;;;5101834;28;20040;-79
2023/12/15 07:13:11;;;;;;;1999.90;999.90;;;5.00;99.90;;;;;;5099926;28;20033;-79
2023/12/15 07:15:36;;;;;;;1999.90;999.90;;;5.00;99.90;;;;;;5116792;28;20039;-78
2023/12/15 07:18:02;;;;;;;1999.90;999.90;;;5.00;99.90;;;;;;5119795;28;20032;-79
2023/12/15 07:20:28;;;;;;;1999.90;999.90;;;5.00;99.90;;;;;;5108660;28;20063;-79
2023/12/15 07:22:53;;;;;;;1999.90;999.90;;;5.00;99.90;;;;;;5100406;28;20496;-79
2023/12/15 07:25:19;;;;;;;1999.90;999.90;;;5.00;99.90;;;;;;5100383;28;20020;-78
2023/12/15 07:27:44;;;;;;;1999.90;999.90;;;5.00;99.90;;;;;;5101292;28;20091;-79
2023/12/15 07:30:10;;;;;;;1999.90;999.90;;;5.00;99.90;;;;;;5100415;28;20094;-79
2023/12/15 07:32:36;;;;;;;1999.90;999.90;;;5.00;99.90;;;;;;5100304;28;20139;-78
2023/12/15 07:35:03;;;;;;;1999.90;999.90;;;5.10;99.90;;;;;;5100247;28;20155;-79
2023/12/15 07:37:29;;;;;;;1999.90;999.90;;;5.10;99.90;;;;;;5101261;28;20413;-79
2023/12/15 07:39:55;;;;;;;1999.90;999.90;;;5.10;99.90;;;;;;5100242;28;20040;-78
2023/12/15 07:42:20;;;;;;;1999.90;999.90;;;5.10;99.90;;;;;;5101751;28;20120;-78
2023/12/15 07:44:46;;;;;;;1999.90;999.90;;;5.10;99.90;;;;;;5101177;28;20029;-79
2023/12/15 07:47:11;;;;;;;1999.90;999.90;;;5.20;99.90;;;;;;5116783;28;20116;-79
2023/12/15 07:49:37;;;;;;;1999.90;999.90;;;5.20;99.90;;;;;;5100513;28;20371;-79
2023/12/15 07:52:03;;;;;;;1999.90;999.90;;;5.20;99.90;;;;;;5100296;28;20071;-79
2023/12/15 07:54:29;;;;;;;1999.90;999.90;;;5.20;99.90;;;;;;5102454;28;20021;-79
2023/12/15 07:56:55;;;;;;;1999.90;999.90;;;5.20;99.90;;;;;;5101442;28;20456;-78
2023/12/15 07:59:21;;;;;;;1999.90;999.90;;;5.20;99.90;;;;;;5101787;28;20107;-79
2023/12/15 08:01:51;;;;;;;1999.90;999.90;;;5.30;99.90;;;;;;5114453;28;20123;-79
2023/12/15 08:04:17;;;;;;;1999.90;999.90;;;5.30;99.90;;;;;;5113620;28;20118;-79
2023/12/15 08:06:42;;;;;;;1999.90;999.90;;;5.30;99.90;;;;;;5103430;28;20025;-81
2023/12/15 08:09:08;;;;;;;1999.90;999.90;;;5.40;99.90;;;;;;5101502;28;20546;-80
2023/12/15 08:11:33;;;;;;;1999.90;999.90;;;5.40;99.90;;;;;;5118142;28;20037;-80
2023/12/15 08:13:59;;;;;;;1999.90;999.90;;;5.40;99.90;;;;;;5103717;28;20470;-81
2023/12/15 08:16:24;;;;;;;1999.90;999.90;;;5.50;99.90;;;;;;5103099;28;20059;-79
2023/12/15 08:18:50;;;;;;;1999.90;999.90;;;5.50;99.90;;;;;;5099813;28;20035;-79
2023/12/15 08:21:16;;;;;;;1999.90;999.90;;;5.50;99.90;;;;;;5113965;28;20072;-78
2023/12/15 08:23:41;;;;;;;1999.90;999.90;;;5.40;99.90;;;;;;5119709;28;20040;-79
2023/12/15 08:26:07;;;;;;;1999.90;999.90;;;5.40;99.90;;;;;;5109778;28;20071;-79
2023/12/15 08:28:33;;;;;;;1999.90;999.90;;;5.40;99.90;;;;;;5098300;28;20040;-79
2023/12/15 08:30:59;;;;;;;1999.90;999.90;;;5.40;99.90;;;;;;5114883;28;20115;-79
2023/12/15 08:33:24;;;;;;;1999.90;999.90;;;5.40;99.90;;;;;;5118955;28;20043;-79
2023/12/15 08:35:50;;;;;;;1999.90;999.90;;;5.50;99.90;;;;;;5120209;27;20541;-79
2023/12/15 08:38:16;;;;;;;1999.90;999.90;;;5.50;99.90;;;;;;5118934;28;20416;-81
2023/12/15 08:40:42;;;;;;;1999.90;999.90;;;5.50;99.90;;;;;;5118345;28;20036;-79
2023/12/15 08:43:07;;;;;;;1999.90;999.90;;;5.60;99.90;;;;;;5114054;28;20044;-79
2023/12/15 08:45:33;;;;;;;1999.90;999.90;;;5.60;99.90;;;;;;5099226;28;20472;-79
2023/12/15 08:47:58;;;;;;;1999.90;999.90;;;5.70;99.90;;;;;;5099169;28;20041;-79
2023/12/15 08:50:24;;;;;;;1999.90;999.90;;;5.70;99.90;;;;;;5099890;28;20457;-79
2023/12/15 08:52:49;;;;;;;1999.90;999.90;;;5.80;99.90;;;;;;5114197;27;20040;-79
2023/12/15 08:55:15;;;;;;;1999.90;999.90;;;5.80;99.90;;;;;;5112319;28;20115;-79
2023/12/15 08:57:40;;;;;;;1999.90;999.90;;;5.80;99.90;;;;;;5109813;27;20043;-79
2023/12/15 09:00:07;;;;;;;1999.90;999.90;;;5.90;99.90;;;;;;5105577;28;20032;-79
2023/12/15 09:02:33;;;;;;;1999.90;999.90;;;5.90;99.90;;;;;;5099008;28;20522;-79
2023/12/15 09:05:00;;;;;;;1999.90;999.90;;;6.00;99.90;;;;;;5098859;28;20067;-79
2023/12/15 09:07:26;;;;;;;1999.90;999.90;;;6.00;99.90;;;;;;5098236;28;20028;-79
2023/12/15 09:09:52;;;;;;;1999.90;999.90;;;6.00;99.90;;;;;;5098769;28;20032;-78
2023/12/15 09:12:17;;;;;;;1999.90;999.90;;;6.00;99.90;;;;;;5098637;28;20052;-79
2023/12/15 09:14:43;;;;;;;1999.90;999.90;;;6.10;99.90;;;;;;5117832;28;20039;-79
2023/12/15 09:17:13;;;;;;;1999.90;999.90;;;6.10;99.90;;;;;;5117439;28;20040;-79
2023/12/15 09:19:39;;;;;;;1999.90;999.90;;;6.10;99.90;;;;;;5118286;27;20032;-79
2023/12/15 09:22:05;;;;;;;1999.90;999.90;;;6.30;99.90;;;;;;5117873;28;20033;-78
2023/12/15 09:24:33;;;;;;;1999.90;999.90;;;6.40;99.90;;;;;;5118956;28;20032;-79
2023/12/15 09:26:59;;;;;;;1999.90;999.90;;;6.30;99.90;;;;;;5118164;28;20024;-79
2023/12/15 09:29:24;;;;;;;1999.90;999.90;;;6.30;99.90;;;;;;5101611;28;20035;-81
2023/12/15 09:31:50;;;;;;;1999.90;999.90;;;6.40;99.90;;;;;;5100811;28;20040;-79
2023/12/15 09:34:17;;;;;;;1999.90;999.90;;;6.40;99.90;;;;;;5118268;27;20085;-78
2023/12/15 09:36:43;;;;;;;1999.90;999.90;;;6.50;99.90;;;;;;5118381;27;20051;-78
2023/12/15 09:39:08;;;;;;;1999.90;999.90;;;6.60;99.90;;;;;;5119863;27;20032;-77
2023/12/15 09:41:35;;;;;;;1999.90;999.90;;;6.60;99.90;;;;;;5119678;27;20040;-79
2023/12/15 09:44:01;;;;;;;1999.90;999.90;;;6.60;99.90;;;;;;5108302;28;20037;-78
2023/12/15 09:46:27;;;;;;;1999.90;999.90;;;6.70;99.90;;;;;;5101970;28;20036;-77
2023/12/15 09:48:53;;;;;;;1999.90;999.90;;;6.80;99.90;;;;;;5096844;28;20037;-78
2023/12/15 09:51:23;;;;;;;1999.90;999.90;;;6.80;99.90;;;;;;5098334;28;20056;-78
2023/12/15 09:53:49;;;;;;;1999.90;999.90;;;6.80;99.90;;;;;;5098866;28;20167;-79
2023/12/15 09:56:15;;;;;;;1999.90;999.90;;;6.80;99.90;;;;;;5099567;28;20041;-78
2023/12/15 09:58:41;;;;;;;1999.90;999.90;;;6.80;99.90;;;;;;5098786;28;20059;-80
2023/12/15 10:01:07;;;;;;;1999.90;999.90;;;6.90;99.90;;;;;;5097519;28;20371;-80
2023/12/15 10:03:32;;;;;;;1999.90;999.90;;;7.00;99.90;;;;;;5102355;27;20052;-79
2023/12/15 10:05:58;;;;;;;1999.90;999.90;;;6.90;99.90;;;;;;5120279;27;20058;-78
2023/12/15 10:08:24;;;;;;;1999.90;999.90;;;7.00;99.90;;;;;;5103156;28;20067;-79
2023/12/15 10:10:52;;;;;;;1999.90;999.90;;;7.00;99.90;;;;;;5112358;27;20032;-78
2023/12/15 10:13:18;;;;;;;1999.90;999.90;;;7.20;99.90;;;;;;5116633;28;20052;-79
2023/12/15 10:15:48;;;;;;;1999.90;999.90;;;7.30;99.90;;;;;;5118441;28;20499;-79
2023/12/15 10:18:14;;;;;;;1999.90;999.90;;;7.30;99.90;;;;;;5117177;28;20044;-79
2023/12/15 10:20:41;;;;;;;1999.90;999.90;;;7.30;99.90;;;;;;5118561;28;20126;-80
2023/12/15 10:23:07;;;;;;;1999.90;999.90;;;7.30;99.90;;;;;;5126464;28;20039;-78
2023/12/15 10:25:33;;;;;;;1999.90;999.90;;;7.30;99.90;;;;;;5122022;28;20038;-80
2023/12/15 10:27:58;;;;;;;1999.90;999.90;;;7.30;99.90;;;;;;5098567;28;20036;-79
2023/12/15 10:30:24;;;;;;;1999.90;999.90;;;7.40;99.90;;;;;;5098644;28;20644;-78
2023/12/15 10:32:53;;;;;;;1999.90;999.90;;;7.50;99.90;;;;;;5120729;28;20067;-79
2023/12/15 10:35:21;;;;;;;1999.90;999.90;;;7.60;99.90;;;;;;5116613;28;20039;-78
2023/12/15 10:37:47;;;;;;;1999.90;999.90;;;7.60;99.90;;;;;;5117808;28;20032;-78
2023/12/15 10:40:13;;;;;;;1999.90;999.90;;;7.60;99.90;;;;;;5104189;28;20028;-77
2023/12/15 10:42:41;;;;;;;1999.90;999.90;;;7.50;99.90;;;;;;5099276;28;20039;-77
2023/12/15 10:45:08;;;;;;;1999.90;999.90;;;7.40;99.90;;;;;;5106567;28;20028;-78
2023/12/15 10:47:34;;;;;;;1999.90;999.90;;;7.40;99.90;;;;;;5119667;28;20113;-78
2023/12/15 10:50:03;;;;;;;1999.90;999.90;;;7.30;99.90;;;;;;5100111;27;20029;-79
2023/12/15 10:52:32;;;;;;;1999.90;999.90;;;7.30;99.90;;;;;;5097799;28;20033;-79
2023/12/15 10:54:59;;;;;;;1999.90;999.90;;;7.20;99.90;;;;;;5098910;28;20905;-79
2023/12/15 10:57:25;;;;;;;1999.90;999.90;;;7.10;99.90;;;;;;5100760;28;20048;-80
2023/12/15 10:59:51;;;;;;;1999.90;999.90;;;7.00;99.90;;;;;;5101276;28;20036;-78
2023/12/15 11:02:19;;;;;;;1999.90;999.90;;;7.00;99.90;;;;;;5115377;28;20560;-79
2023/12/15 11:04:47;;;;;;;1999.90;999.90;;;7.00;99.90;;;;;;5123428;27;20536;-78
2023/12/15 11:07:13;;;;;;;1999.90;999.90;;;7.00;99.90;;;;;;5120730;28;20036;-80
2023/12/15 11:09:39;;;;;;;1999.90;999.90;;;7.00;99.90;;;;;;5121530;28;20032;-79
2023/12/15 11:12:30;;;;;;;1999.90;999.90;;;7.10;99.90;;;;;;5120940;27;20052;-79
2023/12/15 11:14:59;;;;;;;1999.90;999.90;;;7.20;99.90;;;;;;5118447;28;20032;-79
2023/12/15 11:17:26;;;;;;;1999.90;999.90;;;7.30;99.90;;;;;;5119654;28;20036;-79
2023/12/15 11:19:57;;;;;;;1999.90;999.90;;;7.20;99.90;;;;;;5119579;27;20396;-78
2023/12/15 11:22:23;;;;;;;1999.90;999.90;;;7.10;99.90;;;;;;5120482;27;20505;-78
2023/12/15 11:24:48;;;;;;;1999.90;999.90;;;7.10;99.90;;;;;;5119326;28;20068;-78
2023/12/15 11:27:15;;;;;;;1999.90;999.90;;;7.20;99.90;;;;;;5118371;28;20528;-79
2023/12/15 11:29:41;;;;;;;1999.90;999.90;;;7.30;99.90;;;;;;5119732;28;20031;-79
2023/12/15 11:32:29;;;;;;;1999.90;999.90;;;7.30;99.90;;;;;;5120038;28;20035;-79
2023/12/15 11:34:54;;;;;;;1999.90;999.90;;;7.30;99.90;;;;;;5119928;27;20808;-79
2023/12/15 11:37:20;;;;;;;1999.90;999.90;;;7.30;99.90;;;;;;5117880;28;20040;-79
2023/12/15 11:39:46;;;;;;;1999.90;999.90;;;7.20;99.90;;;;;;5120142;28;20100;-78
2023/12/15 11:42:14;;;;;;;1999.90;999.90;;;7.20;99.90;;;;;;5120878;27;20849;-79
2023/12/15 11:44:41;;;;;;;1999.90;999.90;;;7.20;99.90;;;;;;5121009;27;20040;-79
2023/12/15 11:47:07;;;;;;;1999.90;999.90;;;7.30;99.90;;;;;;5118213;28;20040;-79
2023/12/15 11:49:33;;;;;;;1999.90;999.90;;;7.20;99.90;;;;;;5114692;27;20068;-79
2023/12/15 11:51:59;;;;;;;1999.90;999.90;;;7.30;99.90;;;;;;5100633;28;20122;-82
2023/12/15 11:54:25;;;;;;;1999.90;999.90;;;7.40;99.90;;;;;;5103244;28;20037;-78
2023/12/15 11:56:51;;;;;;;1999.90;999.90;;;7.40;99.90;;;;;;5099124;28;20037;-78
2023/12/15 11:59:17;;;;;;;1999.90;999.90;;;7.30;99.90;;;;;;5099312;28;20451;-78
2023/12/15 12:01:42;;;;;;;1999.90;999.90;;;7.20;99.90;;;;;;5099595;28;20033;-79